Terminal Aerodrome Forecast
Issued by NWS

Home | Current Version | Previous Version | Text Only | Print | Product List | Glossary On
Versions: 1 2 3 4 5 6 7 8 9 10 11 12 13 14 15
182
FTAK31 PAJN 160539
TAFAPG
TAF
PAPG 160539Z 1606/1706 VRB03KT P6SM BCFG FEW005 SCT050 BKN110
      WS020/14030KT
     FM160900 11007KT P6SM VCSH OVC100 WS020/14035KT
     FM161200 10008KT 6SM -RA BR SCT025 OVC040 WS020/14035KT
     FM162100 10006KT P6SM VCSH BKN040 OVC090 WS020/15035KT
      AMD LTD TO CLD VIS AND WIND 1606/1615=

USA.gov is the U.S. government's official web portal to all federal, state and local government web resources and services.